Chenois Creek, Washington
Current Conditions -  °F | °C
As of 8:53 AM on Friday 24 Oct 2014 (Local Time) from KHQM Reporting Station
Haze Haze  
Wind Chill: 43°   Ceiling: 500
Heat Index: 48°   Visibility: 5mi
Dew Point: 47°   Wind: 10mph
Humidity: 96%   Direction: 50°NE
Pressure: 30.01"   Gusts: NA
Location:  47.0202°N, 123.878°W
Report Text: KHQM 241553Z AUTO 05009KT 5SM BR OVC005 09/08 A3001 RMK AO2 SLP165 T00890083
Loading
Personal Weather Stations






























Interactive Weather Map New forecast layout! Learn more

10-Day Weather Forecast

Advertisements
Track Severe Weather on mobile